Terminal Aerodrome Forecast
Issued by NWS Tallahassee, FL

Home | Current Version | Previous Version | Text Only | Print | Product List | Glossary On
Versions: 1 2 3 4 5 6 7 8 9 10 11 12 13 14 15 16
668
FTUS42 KTAE 221720
TAFTLH
TAF
KTLH 221720Z 2218/2318 17005KT P6SM TS BKN040CB
      TEMPO 2218/2221 3SM TSRA BKN025CB BKN040
     FM222200 VRB03KT P6SM FEW040 SCT120 BKN250=

USA.gov is the U.S. government's official web portal to all federal, state and local government web resources and services.